createdAt,value
2018-03-26T00:02:35.585Z,6.53
2018-03-26T00:05:38.061Z,6.54
2018-03-26T00:08:40.562Z,6.52
2018-03-26T00:11:43.061Z,6.46
2018-03-26T00:14:45.531Z,6.43
2018-03-26T00:17:48.035Z,6.39
2018-03-26T00:20:50.509Z,6.36
2018-03-26T00:23:53.071Z,6.34
2018-03-26T00:26:55.565Z,6.31
2018-03-26T00:29:58.015Z,6.27
2018-03-26T00:33:00.604Z,6.24
2018-03-26T00:36:03.060Z,6.23
2018-03-26T00:39:05.573Z,6.26
2018-03-26T00:42:08.132Z,6.22
2018-03-26T00:45:10.650Z,6.17
2018-03-26T00:48:13.094Z,6.10
2018-03-26T00:51:15.595Z,6.05
2018-03-26T00:54:18.066Z,6.06
2018-03-26T00:57:20.639Z,5.92
2018-03-26T01:00:23.113Z,5.92
2018-03-26T01:03:25.634Z,5.83
2018-03-26T01:06:28.130Z,5.89
2018-03-26T01:09:30.649Z,5.81
2018-03-26T01:12:33.331Z,5.79
2018-03-26T01:15:35.785Z,5.74
2018-03-26T01:18:38.266Z,5.71
2018-03-26T01:21:40.760Z,5.69
2018-03-26T01:24:43.202Z,5.71
2018-03-26T01:27:45.695Z,5.72
2018-03-26T01:30:48.156Z,5.68
2018-03-26T01:33:50.660Z,5.68
2018-03-26T01:36:53.140Z,5.68
2018-03-26T01:39:55.702Z,5.69
2018-03-26T01:42:58.150Z,5.67
2018-03-26T01:46:00.626Z,5.59
2018-03-26T01:49:03.098Z,5.60
2018-03-26T01:52:05.650Z,5.62
2018-03-26T01:55:08.113Z,5.56
2018-03-26T01:58:10.672Z,5.46
2018-03-26T02:01:13.137Z,5.43
2018-03-26T02:04:15.693Z,5.43
2018-03-26T02:07:18.151Z,5.42
2018-03-26T02:10:20.717Z,5.42
2018-03-26T02:13:23.246Z,5.42
2018-03-26T02:16:25.723Z,5.40
2018-03-26T02:19:28.216Z,5.36
2018-03-26T02:22:30.697Z,5.30
2018-03-26T02:25:33.176Z,5.31
2018-03-26T02:28:35.688Z,5.27
2018-03-26T02:31:38.141Z,5.24
2018-03-26T02:34:40.670Z,5.31
2018-03-26T02:37:43.075Z,5.32
2018-03-26T02:40:45.558Z,5.31
2018-03-26T02:43:47.993Z,5.25
2018-03-26T02:46:50.497Z,5.24
2018-03-26T02:49:53.019Z,5.24
2018-03-26T02:52:55.553Z,5.27
2018-03-26T02:55:58.052Z,5.31
2018-03-26T02:59:00.592Z,5.26
2018-03-26T03:02:03.057Z,5.30
2018-03-26T03:05:05.532Z,5.26
2018-03-26T03:08:08.082Z,5.26
2018-03-26T03:11:10.582Z,5.22
2018-03-26T03:14:13.109Z,5.25
2018-03-26T03:17:15.669Z,5.23
2018-03-26T03:20:18.227Z,5.17
2018-03-26T03:23:20.792Z,5.11
2018-03-26T03:26:23.297Z,5.10
2018-03-26T03:29:25.840Z,5.18
2018-03-26T03:32:28.354Z,5.16
2018-03-26T03:35:30.862Z,5.18
2018-03-26T03:38:33.344Z,5.19
2018-03-26T03:41:35.861Z,5.19
2018-03-26T03:44:38.344Z,5.21
2018-03-26T03:47:40.823Z,5.22
2018-03-26T03:50:43.292Z,5.21
2018-03-26T03:53:45.803Z,5.19
2018-03-26T03:56:48.267Z,5.17
2018-03-26T03:59:50.783Z,5.12
2018-03-26T04:02:53.293Z,5.09
2018-03-26T04:05:55.756Z,5.11
2018-03-26T04:08:58.208Z,5.09
2018-03-26T04:12:00.772Z,5.06
2018-03-26T04:15:03.263Z,5.04
2018-03-26T04:18:05.795Z,5.03
2018-03-26T04:21:08.357Z,4.96
2018-03-26T04:24:10.830Z,4.95
2018-03-26T04:27:13.349Z,5.00
2018-03-26T04:30:15.840Z,4.97
2018-03-26T04:33:18.348Z,4.90
2018-03-26T04:36:20.819Z,4.90
2018-03-26T04:39:23.307Z,4.87
2018-03-26T04:42:25.807Z,4.83
2018-03-26T04:45:28.458Z,4.79
2018-03-26T04:48:30.979Z,4.74
2018-03-26T04:51:33.457Z,4.76
2018-03-26T04:54:35.894Z,4.75
2018-03-26T04:57:38.408Z,4.72
2018-03-26T05:00:40.860Z,4.72
2018-03-26T05:03:43.302Z,4.74
2018-03-26T05:06:45.794Z,4.71
2018-03-26T05:09:48.234Z,4.69
2018-03-26T05:12:50.714Z,4.73
2018-03-26T05:15:53.364Z,4.74
2018-03-26T05:18:55.925Z,4.73
2018-03-26T05:21:58.487Z,4.72
2018-03-26T05:25:01.010Z,4.72
2018-03-26T05:28:03.470Z,4.74
2018-03-26T05:31:06.615Z,4.67
2018-03-26T05:34:09.054Z,4.66
2018-03-26T05:37:11.529Z,4.58
2018-03-26T05:40:14.009Z,4.60
2018-03-26T05:43:16.493Z,4.59
2018-03-26T05:46:19.033Z,4.64
2018-03-26T05:49:21.549Z,4.64
2018-03-26T05:52:24.038Z,4.74
2018-03-26T05:55:26.503Z,4.65
2018-03-26T05:58:29.038Z,4.64
2018-03-26T06:01:31.524Z,4.72
2018-03-26T06:04:34.059Z,4.65
2018-03-26T06:07:36.624Z,4.53
2018-03-26T06:10:39.069Z,4.58
2018-03-26T06:13:41.648Z,4.69
2018-03-26T06:20:16.334Z,5.04
2018-03-26T06:23:18.809Z,4.97
2018-03-26T06:26:21.349Z,4.93
2018-03-26T06:29:23.816Z,4.86
2018-03-26T06:32:26.250Z,5.01
2018-03-26T06:35:28.729Z,4.80
2018-03-26T06:38:36.945Z,4.95
2018-03-26T06:41:39.389Z,5.11
2018-03-26T06:44:41.966Z,5.04
2018-03-26T06:47:44.468Z,5.15
2018-03-26T06:50:46.940Z,5.45
2018-03-26T06:53:49.394Z,4.96
2018-03-26T06:56:51.878Z,4.96
2018-03-26T06:59:54.429Z,4.75
2018-03-26T07:02:56.893Z,4.83
2018-03-26T07:05:59.371Z,4.91
2018-03-26T07:09:01.834Z,4.76
2018-03-26T07:12:04.359Z,4.84
2018-03-26T07:15:06.924Z,5.12
2018-03-26T07:18:09.546Z,4.83
2018-03-26T07:21:12.051Z,4.60
2018-03-26T07:24:14.527Z,4.51
2018-03-26T07:27:17.004Z,4.46
2018-03-26T07:30:19.439Z,4.38
2018-03-26T07:33:21.909Z,4.32
2018-03-26T07:36:24.390Z,4.02
2018-03-26T07:39:26.850Z,3.98
2018-03-26T07:42:29.334Z,4.03
2018-03-26T07:45:31.832Z,4.13
2018-03-26T07:48:34.264Z,4.08
2018-03-26T07:51:36.856Z,4.00
2018-03-26T07:54:39.360Z,3.86
2018-03-26T07:57:41.785Z,4.00
2018-03-26T08:00:44.314Z,4.03
2018-03-26T08:03:46.839Z,3.95
2018-03-26T08:06:49.305Z,3.99
2018-03-26T08:09:51.886Z,3.90
2018-03-26T08:12:54.486Z,3.63
2018-03-26T08:15:57.027Z,3.87
2018-03-26T08:18:59.455Z,3.70
2018-03-26T08:22:01.931Z,3.94
2018-03-26T08:25:04.362Z,4.19
2018-03-26T08:28:06.832Z,4.15
2018-03-26T08:31:09.317Z,4.18
2018-03-26T08:34:11.876Z,4.15
2018-03-26T08:37:14.362Z,3.97
2018-03-26T08:40:16.921Z,4.18
2018-03-26T08:43:19.425Z,4.08
2018-03-26T08:46:21.897Z,4.05
2018-03-26T08:49:24.364Z,4.17
2018-03-26T08:52:26.892Z,4.21
2018-03-26T08:55:29.351Z,4.06
2018-03-26T08:58:31.941Z,4.00
2018-03-26T09:01:34.460Z,3.91
2018-03-26T09:04:36.931Z,3.91
2018-03-26T09:07:39.403Z,4.05
2018-03-26T09:10:41.901Z,4.18
2018-03-26T09:13:44.378Z,4.05
2018-03-26T09:16:46.868Z,4.38
2018-03-26T09:19:49.385Z,4.31
2018-03-26T09:22:51.994Z,4.36
2018-03-26T09:25:54.542Z,4.41
2018-03-26T09:28:57.092Z,4.68
2018-03-26T09:31:59.562Z,4.32
2018-03-26T09:35:01.988Z,4.45
2018-03-26T09:38:04.572Z,4.62
2018-03-26T09:41:07.067Z,4.64
2018-03-26T09:44:09.532Z,4.77
2018-03-26T09:47:12.038Z,4.73
2018-03-26T09:50:14.567Z,4.92
2018-03-26T09:53:17.102Z,4.93
2018-03-26T09:56:19.592Z,5.00
2018-03-26T09:59:22.069Z,4.82
2018-03-26T10:02:24.619Z,5.23
2018-03-26T10:05:27.098Z,5.10
2018-03-26T10:08:29.602Z,5.01
2018-03-26T10:11:32.107Z,5.11
2018-03-26T10:14:34.723Z,5.04
2018-03-26T10:17:37.276Z,4.50
2018-03-26T10:20:39.746Z,5.10
2018-03-26T10:23:42.298Z,4.86
2018-03-26T10:26:44.772Z,4.82
2018-03-26T10:29:47.223Z,4.87
2018-03-26T10:32:49.777Z,4.71
2018-03-26T10:35:52.313Z,4.59
2018-03-26T10:38:54.806Z,4.59
2018-03-26T10:41:57.303Z,4.95
2018-03-26T10:44:59.823Z,4.58
2018-03-26T10:48:02.583Z,4.66
2018-03-26T10:51:05.061Z,4.78
2018-03-26T10:54:07.592Z,5.45
2018-03-26T10:57:10.028Z,5.32
2018-03-26T11:00:13.307Z,4.83
2018-03-26T11:03:15.818Z,5.00
2018-03-26T11:06:18.310Z,5.31
2018-03-26T11:09:20.789Z,5.10
2018-03-26T11:12:23.299Z,5.28
2018-03-26T11:15:25.808Z,4.79
2018-03-26T11:18:28.283Z,5.46
2018-03-26T11:21:30.752Z,5.38
2018-03-26T11:24:33.347Z,4.93
2018-03-26T11:27:35.907Z,5.48
2018-03-26T11:30:38.388Z,5.77
2018-03-26T11:33:40.906Z,5.97
2018-03-26T11:36:43.394Z,5.16
2018-03-26T11:39:45.964Z,5.61
2018-03-26T11:42:48.424Z,4.97
2018-03-26T11:45:51.023Z,5.11
2018-03-26T11:48:53.458Z,4.89
2018-03-26T11:51:55.999Z,4.95
2018-03-26T11:54:58.568Z,4.78
2018-03-26T11:58:01.129Z,4.54
2018-03-26T12:01:03.594Z,4.93
2018-03-26T12:04:06.042Z,5.07
2018-03-26T12:07:08.510Z,4.75
2018-03-26T12:10:11.084Z,5.00
2018-03-26T12:13:13.694Z,5.10
2018-03-26T12:16:16.222Z,5.55
2018-03-26T12:19:18.914Z,5.49
2018-03-26T12:22:21.413Z,4.82
2018-03-26T12:25:23.924Z,5.07
2018-03-26T12:28:38.138Z,5.35
2018-03-26T12:31:40.637Z,5.76
2018-03-26T12:34:54.905Z,5.80
2018-03-26T12:37:57.459Z,5.49
2018-03-26T12:41:00.043Z,5.02
2018-03-26T12:44:02.570Z,5.36
2018-03-26T12:47:05.158Z,5.48
2018-03-26T12:50:07.668Z,5.46
2018-03-26T12:53:10.093Z,5.48
2018-03-26T12:56:12.628Z,5.39
2018-03-26T12:59:15.208Z,4.98
2018-03-26T13:02:26.470Z,4.63
2018-03-26T13:05:28.942Z,4.47
2018-03-26T13:08:31.426Z,4.28
2018-03-26T13:11:33.923Z,4.32
2018-03-26T13:14:36.510Z,4.17
2018-03-26T13:17:38.976Z,4.05
2018-03-26T13:20:41.491Z,4.50
2018-03-26T13:23:43.943Z,4.02
2018-03-26T13:26:46.454Z,4.34
2018-03-26T13:29:48.930Z,4.13
2018-03-26T13:32:51.483Z,4.60
2018-03-26T13:35:53.969Z,4.63
2018-03-26T13:38:56.504Z,4.69
2018-03-26T13:41:59.066Z,4.67
2018-03-26T13:45:01.539Z,4.92
2018-03-26T13:48:04.027Z,4.66
2018-03-26T13:51:06.544Z,4.89
2018-03-26T13:54:09.116Z,4.66
2018-03-26T13:57:11.604Z,4.63
2018-03-26T14:00:14.101Z,4.69
2018-03-26T14:03:16.669Z,4.98
2018-03-26T14:06:19.160Z,5.06
2018-03-26T14:09:33.590Z,5.07
2018-03-26T14:12:47.974Z,4.91
2018-03-26T14:16:02.321Z,4.76
2018-03-26T14:19:04.925Z,4.79
2018-03-26T14:22:07.393Z,4.57
2018-03-26T14:25:09.895Z,4.34
2018-03-26T14:28:12.364Z,4.88
2018-03-26T14:31:14.869Z,4.75
2018-03-26T14:34:17.444Z,4.78
2018-03-26T14:37:19.994Z,5.06
2018-03-26T14:40:22.555Z,5.00
2018-03-26T14:43:24.972Z,5.03
2018-03-26T14:46:27.542Z,5.06
2018-03-26T14:49:30.151Z,5.24
2018-03-26T14:52:32.621Z,5.39
2018-03-26T14:55:35.136Z,5.57
2018-03-26T14:58:37.661Z,5.20
2018-03-26T15:01:40.111Z,4.78
2018-03-26T15:04:42.770Z,4.76
2018-03-26T15:07:45.419Z,4.91
2018-03-26T15:10:47.977Z,4.72
2018-03-26T15:13:50.478Z,4.64
2018-03-26T15:16:53.005Z,4.75
2018-03-26T15:19:55.475Z,4.54
2018-03-26T15:22:58.022Z,4.44
2018-03-26T15:26:00.816Z,4.37
2018-03-26T15:29:03.256Z,4.51
2018-03-26T15:32:05.740Z,4.30
2018-03-26T15:35:08.266Z,4.32
2018-03-26T15:38:10.840Z,4.34
2018-03-26T15:41:13.411Z,4.32
2018-03-26T15:44:15.880Z,4.30
2018-03-26T15:47:18.424Z,4.12
2018-03-26T15:50:20.961Z,3.98
2018-03-26T15:53:23.451Z,4.03
2018-03-26T15:56:25.942Z,4.09
2018-03-26T15:59:28.480Z,4.14
2018-03-26T16:02:36.492Z,4.26
2018-03-26T16:05:39.019Z,4.08
2018-03-26T16:08:41.518Z,4.03
2018-03-26T16:11:44.031Z,4.14
2018-03-26T16:14:46.608Z,3.94
2018-03-26T16:17:49.092Z,4.06
2018-03-26T16:20:51.743Z,3.97
2018-03-26T16:23:54.240Z,4.01
2018-03-26T16:26:56.751Z,3.98
2018-03-26T16:29:59.319Z,4.02
2018-03-26T16:33:01.816Z,4.02
2018-03-26T16:36:04.352Z,3.98
2018-03-26T16:39:06.867Z,4.00
2018-03-26T16:42:27.782Z,4.13
2018-03-26T16:45:30.355Z,4.14
2018-03-26T16:48:32.828Z,4.19
2018-03-26T16:51:35.347Z,4.22
2018-03-26T16:54:37.936Z,4.08
2018-03-26T16:57:40.423Z,4.04
2018-03-26T17:00:42.993Z,4.12
2018-03-26T17:03:45.456Z,4.06
2018-03-26T17:06:47.972Z,4.07
2018-03-26T17:09:50.552Z,4.05
2018-03-26T17:12:53.027Z,4.02
2018-03-26T17:15:55.524Z,3.91
2018-03-26T17:18:58.072Z,3.98
2018-03-26T17:22:00.641Z,3.77
2018-03-26T17:25:03.261Z,3.64
2018-03-26T17:28:05.708Z,3.53
2018-03-26T17:31:08.211Z,3.42
2018-03-26T17:34:10.671Z,3.35
2018-03-26T17:37:13.198Z,3.23
2018-03-26T17:40:15.683Z,3.14
2018-03-26T17:43:18.629Z,3.00
2018-03-26T17:46:21.092Z,2.84
2018-03-26T17:49:23.638Z,2.71
2018-03-26T17:52:26.129Z,2.56
2018-03-26T17:55:28.678Z,2.42
2018-03-26T17:58:31.157Z,2.25
2018-03-26T18:01:33.800Z,2.08
2018-03-26T18:04:36.317Z,1.97
2018-03-26T18:07:38.813Z,1.90
2018-03-26T18:10:41.398Z,1.83
2018-03-26T18:13:43.929Z,1.71
2018-03-26T18:16:46.383Z,1.58
2018-03-26T18:19:48.958Z,1.50
2018-03-26T18:22:51.664Z,1.39
2018-03-26T18:25:54.308Z,1.36
2018-03-26T18:28:56.842Z,1.31
2018-03-26T18:31:59.420Z,1.25
2018-03-26T18:35:02.057Z,1.24
2018-03-26T18:38:04.667Z,1.38
2018-03-26T18:41:07.233Z,1.36
2018-03-26T18:44:09.714Z,1.36
2018-03-26T18:47:12.234Z,1.36
2018-03-26T18:50:14.718Z,1.38
2018-03-26T18:53:17.193Z,1.41
2018-03-26T18:56:19.748Z,1.40
2018-03-26T18:59:22.356Z,1.39
2018-03-26T19:02:24.877Z,1.48
2018-03-26T19:05:27.369Z,1.50
2018-03-26T19:08:29.938Z,1.63
2018-03-26T19:11:32.466Z,1.65
2018-03-26T19:14:35.118Z,1.68
2018-03-26T19:17:37.670Z,1.79
2018-03-26T19:20:40.195Z,1.83
2018-03-26T19:23:42.701Z,1.90
2018-03-26T19:26:45.261Z,1.96
2018-03-26T19:29:47.776Z,1.95
2018-03-26T19:32:50.263Z,1.96
2018-03-26T19:35:52.783Z,1.99
2018-03-26T19:38:55.650Z,1.98
2018-03-26T19:41:58.179Z,1.97
2018-03-26T19:45:00.680Z,1.97
2018-03-26T19:48:03.329Z,2.00
2018-03-26T19:51:05.833Z,1.98
2018-03-26T19:54:08.346Z,1.99
2018-03-26T19:57:10.794Z,1.99
2018-03-26T20:00:13.300Z,2.09
2018-03-26T20:03:15.822Z,2.20
2018-03-26T20:06:18.332Z,2.21
2018-03-26T20:09:20.828Z,2.24
2018-03-26T20:12:23.343Z,2.42
2018-03-26T20:15:25.953Z,2.44
2018-03-26T20:18:28.519Z,2.47
2018-03-26T20:21:31.009Z,2.54
2018-03-26T20:24:33.538Z,2.57
2018-03-26T20:27:36.216Z,2.65
2018-03-26T20:30:38.678Z,2.80
2018-03-26T20:33:41.208Z,2.89
2018-03-26T20:36:43.980Z,2.87
2018-03-26T20:39:46.525Z,2.89
2018-03-26T20:42:49.056Z,3.00
2018-03-26T20:45:51.692Z,3.08
2018-03-26T20:48:54.228Z,3.13
2018-03-26T20:51:56.809Z,3.08
2018-03-26T20:54:59.299Z,3.06
2018-03-26T20:58:01.864Z,3.06
2018-03-26T21:01:04.353Z,3.01
2018-03-26T21:04:06.964Z,2.99
2018-03-26T21:07:09.480Z,2.98
2018-03-26T21:10:12.110Z,3.01
2018-03-26T21:13:14.650Z,2.91
2018-03-26T21:16:17.161Z,2.84
2018-03-26T21:19:19.774Z,2.81
2018-03-26T21:22:22.343Z,2.80
2018-03-26T21:25:24.881Z,2.69
2018-03-26T21:28:27.385Z,2.62
2018-03-26T21:31:29.865Z,2.52
2018-03-26T21:34:32.493Z,2.41
2018-03-26T21:37:35.042Z,2.39
2018-03-26T21:40:37.610Z,2.37
2018-03-26T21:43:40.159Z,2.29
2018-03-26T21:46:42.742Z,2.26
2018-03-26T21:49:45.301Z,2.24
2018-03-26T21:52:47.867Z,2.27
2018-03-26T21:55:50.360Z,2.22
2018-03-26T21:58:52.885Z,2.19
2018-03-26T22:01:55.357Z,2.12
2018-03-26T22:04:57.806Z,2.08
2018-03-26T22:08:00.380Z,1.96
2018-03-26T22:11:02.938Z,1.90
2018-03-26T22:14:05.448Z,1.83
2018-03-26T22:17:08.064Z,1.83
2018-03-26T22:20:10.570Z,1.81
2018-03-26T22:23:13.057Z,1.78
2018-03-26T22:26:15.501Z,1.80
2018-03-26T22:29:18.103Z,1.82
2018-03-26T22:32:20.638Z,1.86
2018-03-26T22:35:23.128Z,1.88
2018-03-26T22:38:25.552Z,1.92
2018-03-26T22:41:28.030Z,1.94
2018-03-26T22:44:30.527Z,1.98
2018-03-26T22:47:33.022Z,2.08
2018-03-26T22:50:35.497Z,2.12
2018-03-26T22:53:38.006Z,2.06
2018-03-26T22:56:40.509Z,2.03
2018-03-26T22:59:43.006Z,2.11
2018-03-26T23:02:45.576Z,2.10
2018-03-26T23:05:48.020Z,2.08
2018-03-26T23:08:50.522Z,2.05
2018-03-26T23:11:53.040Z,2.07
2018-03-26T23:14:55.537Z,2.06
2018-03-26T23:17:57.976Z,2.10
2018-03-26T23:21:00.440Z,2.10
2018-03-26T23:24:02.912Z,2.12
2018-03-26T23:27:05.416Z,2.17
2018-03-26T23:30:07.922Z,2.14
2018-03-26T23:33:10.593Z,2.07
2018-03-26T23:36:13.199Z,2.02
2018-03-26T23:39:15.680Z,2.01
2018-03-26T23:42:18.153Z,1.98
2018-03-26T23:45:20.643Z,1.94
2018-03-26T23:48:23.121Z,2.00
2018-03-26T23:51:25.576Z,1.97
2018-03-26T23:54:28.182Z,1.96
2018-03-26T23:57:30.644Z,1.90
